Bosporus — V2QY — position and weather

sailwx.info

Track history (hours):
 
Tides and Currents Weather Stations Pressure Air Temp Water Temp Dewpoint Dewpoint Depression Visibility Wind Speed Wind Dir Waves Ship Positions

Bosporus

Last reported at 2018-Aug-16 08:27 UTC. Time now 2018-Aug-16 08:46 UTC.
Position N 43°25' E 004°56'.

Length 100 m; draft 4.1 m.

Type: Cargo ship. MMSI: 304010802.

Date/timePositionNaut miles runAvg speedWind from/ knotsBaromVisibWave heightAir tempDewpointWater temp
2018-Aug-16 08:27N 43°25' E 004°56'0 0.0
2018-Aug-16 08:00N 43°25' E 004°56'0 0.0
2018-Aug-16 07:27N 43°25' E 004°56'0 0.0
2018-Aug-16 07:00N 43°25' E 004°56'0 0.0
2018-Aug-16 06:30N 43°25' E 004°56'0 0.0
2018-Aug-16 06:00N 43°25' E 004°56'0 0.0
2018-Aug-16 05:30N 43°25' E 004°56'0 0.0
2018-Aug-16 05:00N 43°25' E 004°56'0 0.0
2018-Aug-16 04:30N 43°25' E 004°56'0 0.0
2018-Aug-16 04:00N 43°25' E 004°56'0 0.0
2018-Aug-16 03:30N 43°25' E 004°56'0 0.0
2018-Aug-16 03:00N 43°25' E 004°56'0 0.0
2018-Aug-16 02:30N 43°25' E 004°56'0 0.0
2018-Aug-16 02:00N 43°25' E 004°56'0 0.0
2018-Aug-16 01:30N 43°25' E 004°56'0 0.0
2018-Aug-16 01:00N 43°25' E 004°56'0 0.0
2018-Aug-16 00:30N 43°25' E 004°56'0 0.0
2018-Aug-15 23:57N 43°25' E 004°56'0 0.0
2018-Aug-15 23:30N 43°25' E 004°56'0 0.0
2018-Aug-15 23:00N 43°25' E 004°56'0 0.1
2018-Aug-15 22:30N 43°25' E 004°56'0 0.0
2018-Aug-15 22:00N 43°25' E 004°56'0 0.0
2018-Aug-15 21:27N 43°25' E 004°56'0 0.0
2018-Aug-15 21:00N 43°25' E 004°56'0 0.1
2018-Aug-15 20:27N 43°25' E 004°56'0 0.0
2018-Aug-15 20:00N 43°25' E 004°56'0 0.0
2018-Aug-15 19:30N 43°25' E 004°56'0 0.0
2018-Aug-15 18:57N 43°25' E 004°56'0 0.0
2018-Aug-15 18:30N 43°25' E 004°56'0 0.0
2018-Aug-15 18:00N 43°25' E 004°56'0 0.0
2018-Aug-15 17:30N 43°25' E 004°56'0 0.0
2018-Aug-15 17:00N 43°25' E 004°56'0 0.0
2018-Aug-15 16:27N 43°25' E 004°56'0 0.0
2018-Aug-15 16:00N 43°25' E 004°56'0 0.0
2018-Aug-15 15:30N 43°25' E 004°56'0 0.0
2018-Aug-15 15:00N 43°25' E 004°56'0 0.0
2018-Aug-15 14:30N 43°25' E 004°56'0 0.0
2018-Aug-15 14:00N 43°25' E 004°56'0 0.0
2018-Aug-15 13:30N 43°25' E 004°56'0 0.0
2018-Aug-15 13:00N 43°25' E 004°56'0 0.0
2018-Aug-15 12:30N 43°25' E 004°56'0 0.0
2018-Aug-15 12:00N 43°25' E 004°56'0 0.0
2018-Aug-15 11:30N 43°25' E 004°56'0 0.0
2018-Aug-15 11:00N 43°25' E 004°56'0 0.0
2018-Aug-15 10:30N 43°25' E 004°56'0 0.0
2018-Aug-15 10:00N 43°25' E 004°56'0 0.0
2018-Aug-15 09:30N 43°25' E 004°56'0 0.0
2018-Aug-15 09:00N 43°25' E 004°56'0 0.0
2018-Aug-15 08:24N 43°25' E 004°56'0 0.1
2018-Aug-15 08:00N 43°25' E 004°56'0 0.0
2018-Aug-15 07:30N 43°25' E 004°56'0 0.0
2018-Aug-15 07:00N 43°25' E 004°56'0 0.0
2018-Aug-15 06:30N 43°25' E 004°56'0 0.0
2018-Aug-15 06:00N 43°25' E 004°56'0 0.0
2018-Aug-15 05:30N 43°25' E 004°56'0 0.0
2018-Aug-15 05:00N 43°25' E 004°56'0 0.0
2018-Aug-15 04:30N 43°25' E 004°56'0 0.0
2018-Aug-15 04:00N 43°25' E 004°56'0 0.0
2018-Aug-15 03:30N 43°25' E 004°56'0 0.0
2018-Aug-15 03:00N 43°25' E 004°56'0 0.0
2018-Aug-15 02:27N 43°25' E 004°56'0 0.0
2018-Aug-15 01:57N 43°25' E 004°56'0 0.0
2018-Aug-15 01:30N 43°25' E 004°56'0 0.0
2018-Aug-15 01:00N 43°25' E 004°56'0 0.0
2018-Aug-15 00:30N 43°25' E 004°56'0 0.2
2018-Aug-15 00:00N 43°25' E 004°56'4 7.4
2018-Aug-14 23:30N 43°21' E 004°58'3 7.0
2018-Aug-14 23:00N 43°18' E 004°58'510.5
2018-Aug-14 22:30N 43°16' E 004°51'3310.5
2018-Aug-14 19:24N 43°14' E 004°07'40 8.3
2018-Aug-14 14:35N 42°56' E 003°18'1 8.1
2018-Aug-14 14:28N 42°55' E 003°18'4 8.1
2018-Aug-14 13:58N 42°51' E 003°18'7 8.5
2018-Aug-14 13:09N 42°44' E 003°17'86 8.6
2018-Aug-14 03:12N 41°24' E 002°35'210.4
2018-Aug-14 02:59N 41°23' E 002°33'510.3
2018-Aug-14 02:30N 41°19' E 002°28'510.0
2018-Aug-14 02:00N 41°16' E 002°23'5 9.8
2018-Aug-14 01:30N 41°13' E 002°18'5 9.7
2018-Aug-14 01:00N 41°10' E 002°13'1 0.0
2018-Aug-11 21:24N 41°10' E 002°14'510.0
2018-Aug-11 20:56N 41°13' E 002°18'27 9.3
2018-Aug-11 18:03N 41°30' E 002°45'0 9.0
2018-Aug-11 18:00N 41°31' E 002°46'4 9.0
2018-Aug-11 17:31N 41°33' E 002°50'13610.0
2018-Aug-11 03:53N 43°15' E 004°53'410.2
2018-Aug-11 03:30N 43°18' E 004°57'5 9.0
2018-Aug-11 03:00N 43°22' E 004°58'4 8.7
2018-Aug-11 02:30N 43°25' E 004°53'1 1.0
2018-Aug-11 01:56N 43°26' E 004°53'0 0.0
2018-Aug-11 01:23N 43°26' E 004°53'0 0.0
2018-Aug-11 00:59N 43°26' E 004°53'0 0.0
2018-Aug-11 00:29N 43°26' E 004°53'0 0.0
2018-Aug-10 23:59N 43°26' E 004°53'0 0.0
2018-Aug-10 23:29N 43°26' E 004°53'0 0.0
2018-Aug-10 22:59N 43°26' E 004°53'0 0.0
2018-Aug-10 22:23N 43°26' E 004°53'0 0.0
2018-Aug-10 21:59N 43°26' E 004°53'0 0.0
2018-Aug-10 21:23N 43°26' E 004°53'0 0.0
2018-Aug-10 20:59N 43°26' E 004°53'0 0.0
2018-Aug-10 20:26N 43°26' E 004°53'0 0.0
2018-Aug-10 19:59N 43°26' E 004°53'0 0.0
2018-Aug-10 19:29N 43°26' E 004°53'0 0.0
2018-Aug-10 18:59N 43°26' E 004°53'0 0.0
2018-Aug-10 18:29N 43°26' E 004°53'0 0.0
2018-Aug-10 17:53N 43°26' E 004°53'0 0.0
2018-Aug-10 17:29N 43°26' E 004°53'0 0.0
2018-Aug-10 16:59N 43°26' E 004°53'0 0.0
2018-Aug-10 16:29N 43°26' E 004°53'0 0.0
2018-Aug-10 15:59N 43°26' E 004°53'0 0.0
2018-Aug-10 15:29N 43°26' E 004°53'0 0.0
2018-Aug-10 14:59N 43°26' E 004°53'0 0.0
2018-Aug-10 14:29N 43°26' E 004°53'0 0.0
2018-Aug-10 13:59N 43°26' E 004°53'0 0.0
2018-Aug-10 13:29N 43°26' E 004°53'0 0.0
2018-Aug-10 12:59N 43°26' E 004°53'0 0.0
2018-Aug-10 12:29N 43°26' E 004°53'0 0.0
2018-Aug-10 11:56N 43°26' E 004°53'0 0.0
2018-Aug-10 11:29N 43°26' E 004°53'0 0.0
2018-Aug-10 10:59N 43°26' E 004°53'0 0.0
2018-Aug-10 10:29N 43°26' E 004°53'0 0.0
2018-Aug-10 09:56N 43°26' E 004°53'0 0.0
2018-Aug-10 09:26N 43°26' E 004°53'0 0.0
2018-Aug-10 08:59N 43°26' E 004°53'0 0.0
2018-Aug-10 08:29N 43°26' E 004°53'0 0.0
2018-Aug-10 07:50N 43°26' E 004°53'0 0.0
2018-Aug-10 07:20N 43°26' E 004°53'0 0.0
2018-Aug-10 06:56N 43°26' E 004°53'0 0.0
2018-Aug-10 06:29N 43°26' E 004°53'0 0.0
2018-Aug-10 05:59N 43°26' E 004°53'0 0.0
2018-Aug-10 05:29N 43°26' E 004°53'0 0.0
2018-Aug-10 04:56N 43°26' E 004°53'0 0.0
2018-Aug-10 04:29N 43°26' E 004°53'0 0.0
2018-Aug-10 03:59N 43°26' E 004°53'0 0.0
2018-Aug-10 03:29N 43°26' E 004°53'0 0.0
2018-Aug-10 02:59N 43°26' E 004°53'0 0.0
2018-Aug-10 02:29N 43°26' E 004°53'0 0.0
2018-Aug-10 01:59N 43°26' E 004°53'0 0.0
2018-Aug-10 01:29N 43°26' E 004°53'0 0.0
2018-Aug-10 00:59N 43°26' E 004°53'0 0.0
2018-Aug-10 00:29N 43°26' E 004°53'0 0.0
2018-Aug-09 23:59N 43°26' E 004°53'0 0.0
2018-Aug-09 23:30N 43°26' E 004°53'1 2.9
2018-Aug-09 22:59N 43°24' E 004°53'2 4.0
2018-Aug-09 22:30N 43°25' E 004°56'0 0.0
2018-Aug-09 22:00N 43°25' E 004°56'0 0.0
2018-Aug-09 21:27N 43°25' E 004°56'0 0.0
2018-Aug-09 21:00N 43°25' E 004°56'0 0.0
2018-Aug-09 20:24N 43°25' E 004°56'0 0.0
2018-Aug-09 20:00N 43°25' E 004°56'0 0.0
2018-Aug-09 19:30N 43°25' E 004°56'0 0.3
2018-Aug-09 19:00N 43°25' E 004°56'0 0.0
2018-Aug-09 18:30N 43°25' E 004°56'0 0.0
2018-Aug-09 18:00N 43°25' E 004°56'0 0.0
2018-Aug-09 17:30N 43°25' E 004°56'0 0.0
2018-Aug-09 17:00N 43°25' E 004°56'0 0.0
2018-Aug-09 16:27N 43°25' E 004°56'0 0.1
2018-Aug-09 16:00N 43°25' E 004°56'0 0.0
2018-Aug-09 15:30N 43°25' E 004°56'0 0.0
2018-Aug-09 15:00N 43°25' E 004°56'0 0.0
2018-Aug-09 14:30N 43°25' E 004°56'0 0.0
2018-Aug-09 14:00N 43°25' E 004°56'0 0.1
2018-Aug-09 13:30N 43°25' E 004°56'0 0.0
2018-Aug-09 13:00N 43°25' E 004°56'0 0.1
2018-Aug-09 12:30N 43°25' E 004°56'0 0.1
2018-Aug-09 12:00N 43°25' E 004°56'0 0.0
2018-Aug-09 11:30N 43°25' E 004°56'0 0.0
2018-Aug-09 11:00N 43°25' E 004°56'0 0.0
2018-Aug-09 10:30N 43°25' E 004°56'0 0.0
2018-Aug-09 10:00N 43°25' E 004°56'0 0.0
2018-Aug-09 09:30N 43°25' E 004°56'0 0.0
2018-Aug-09 09:00N 43°25' E 004°56'0 0.0
2018-Aug-09 08:30N 43°25' E 004°56'0 0.0
2018-Aug-09 08:00N 43°25' E 004°56'0 0.0
2018-Aug-09 07:30N 43°25' E 004°56'0 0.0
2018-Aug-09 07:00N 43°25' E 004°56'0 0.0
2018-Aug-09 06:30N 43°25' E 004°56'0 0.0
2018-Aug-09 06:00N 43°25' E 004°56'0 0.0
2018-Aug-09 05:30N 43°25' E 004°56'0 0.0
2018-Aug-09 05:00N 43°25' E 004°56'0 0.0
2018-Aug-09 04:30N 43°25' E 004°56'0 0.0
2018-Aug-09 04:00N 43°25' E 004°56'0 0.0
2018-Aug-09 03:30N 43°25' E 004°56'0 0.1
2018-Aug-09 03:00N 43°25' E 004°56'0 0.0
2018-Aug-09 02:30N 43°25' E 004°56'0 0.0
2018-Aug-09 02:00N 43°25' E 004°56'0 0.0
2018-Aug-09 01:24N 43°25' E 004°56'0 0.0
2018-Aug-09 01:00N 43°25' E 004°56'0 0.0
2018-Aug-09 00:30N 43°25' E 004°56'0 0.0
2018-Aug-08 23:57N 43°25' E 004°56'0 0.0
2018-Aug-08 23:30N 43°25' E 004°56'0 0.0
2018-Aug-08 23:00N 43°25' E 004°56'0 0.0
2018-Aug-08 22:30N 43°25' E 004°56'0 0.0
2018-Aug-08 22:00N 43°25' E 004°56'0 0.0
2018-Aug-08 21:30N 43°25' E 004°56'0 0.0
2018-Aug-08 20:57N 43°25' E 004°56'0 0.0
2018-Aug-08 20:30N 43°25' E 004°56'0 0.0
2018-Aug-08 20:00N 43°25' E 004°56'0 0.0
2018-Aug-08 19:30N 43°25' E 004°56'0 0.0
2018-Aug-08 19:00N 43°25' E 004°56'0 0.0
2018-Aug-08 18:30N 43°25' E 004°56'0 0.0
2018-Aug-08 18:00N 43°25' E 004°56'0 0.0
2018-Aug-08 17:30N 43°25' E 004°56'0 0.0
2018-Aug-08 17:00N 43°25' E 004°56'0 0.0
2018-Aug-08 16:30N 43°25' E 004°56'0 0.0
2018-Aug-08 16:00N 43°25' E 004°56'0 0.0
2018-Aug-08 15:27N 43°25' E 004°56'0 0.0
2018-Aug-08 15:00N 43°25' E 004°56'0 0.0
2018-Aug-08 14:30N 43°25' E 004°56'0 0.0
2018-Aug-08 14:00N 43°25' E 004°56'0 0.0
2018-Aug-08 13:30N 43°25' E 004°56'0 0.0
2018-Aug-08 12:57N 43°25' E 004°56'0 0.0
2018-Aug-08 12:27N 43°25' E 004°56'0 0.0
2018-Aug-08 12:00N 43°25' E 004°56'0 0.0
2018-Aug-08 11:30N 43°25' E 004°56'0 0.0
2018-Aug-08 11:00N 43°25' E 004°56'0 0.0
2018-Aug-08 10:30N 43°25' E 004°56'0 0.0
2018-Aug-08 10:00N 43°25' E 004°56'0 0.0
2018-Aug-08 09:30N 43°25' E 004°56'0 0.0
2018-Aug-08 09:00N 43°25' E 004°56'0 0.0
2018-Aug-08 08:30N 43°25' E 004°56'0 0.1
2018-Aug-08 08:00N 43°25' E 004°56'0 0.0
2018-Aug-08 07:30N 43°25' E 004°56'0 0.0
2018-Aug-08 07:00N 43°25' E 004°56'0 0.1
2018-Aug-08 06:30N 43°25' E 004°56'0 0.0
2018-Aug-08 06:00N 43°25' E 004°56'0 0.0
2018-Aug-08 05:30N 43°25' E 004°56'0 0.0
2018-Aug-08 05:00N 43°25' E 004°56'0 0.0
2018-Aug-08 04:30N 43°25' E 004°56'0 0.0
2018-Aug-08 03:57N 43°25' E 004°56'0 0.0
2018-Aug-08 03:30N 43°25' E 004°56'0 0.1
2018-Aug-08 03:00N 43°25' E 004°56'0 0.0
2018-Aug-08 02:30N 43°25' E 004°56'0 0.0
2018-Aug-08 02:00N 43°25' E 004°56'0 0.0
2018-Aug-08 01:27N 43°25' E 004°56'0 0.0
2018-Aug-08 01:00N 43°25' E 004°56'0 0.0
2018-Aug-08 00:30N 43°25' E 004°56'0 0.1
2018-Aug-08 00:00N 43°25' E 004°56'0 0.0
2018-Aug-07 23:30N 43°25' E 004°56'0 0.0
2018-Aug-07 23:00N 43°25' E 004°56'0 0.0
2018-Aug-07 22:30N 43°25' E 004°56'0 0.0
2018-Aug-07 22:00N 43°25' E 004°56'0 0.0
2018-Aug-07 21:30N 43°25' E 004°56'0 0.0
2018-Aug-07 20:57N 43°25' E 004°56'0 0.0
2018-Aug-07 20:30N 43°25' E 004°56'0 0.0
2018-Aug-07 20:00N 43°25' E 004°56'0 0.0
2018-Aug-07 19:30N 43°25' E 004°56'0 0.0
2018-Aug-07 19:00N 43°25' E 004°56'0 0.0
2018-Aug-07 18:30N 43°25' E 004°56'0 0.0
2018-Aug-07 18:00N 43°25' E 004°56'0 0.0
2018-Aug-07 17:27N 43°25' E 004°56'0 0.0
2018-Aug-07 17:00N 43°25' E 004°56'0 0.0
2018-Aug-07 16:30N 43°25' E 004°56'0 0.0
2018-Aug-07 16:00N 43°25' E 004°56'0 0.0
2018-Aug-07 15:30N 43°25' E 004°56'0 0.0
2018-Aug-07 15:00N 43°25' E 004°56'0 0.0
2018-Aug-07 14:30N 43°25' E 004°56'0 0.0
2018-Aug-07 14:00N 43°25' E 004°56'0 0.0
2018-Aug-07 13:30N 43°25' E 004°56'0 0.0
2018-Aug-07 13:00N 43°25' E 004°56'0 0.0
2018-Aug-07 12:30N 43°25' E 004°56'0 0.0
2018-Aug-07 12:00N 43°25' E 004°56'0 0.0
2018-Aug-07 11:30N 43°25' E 004°56'0 0.0
2018-Aug-07 11:00N 43°25' E 004°56'0 0.0
2018-Aug-07 10:30N 43°25' E 004°56'0 0.0
2018-Aug-07 10:00N 43°25' E 004°56'0 0.2
2018-Aug-07 09:30N 43°25' E 004°56'4 9.0
2018-Aug-07 09:00N 43°21' E 004°59'510.2
2018-Aug-07 08:30N 43°16' E 005°01'5 9.2
2018-Aug-07 07:58N 43°11' E 005°01'13210.1
2018-Aug-06 18:52N 41°38' E 002°54'1810.3
2018-Aug-06 17:05N 41°27' E 002°35'310.3
2018-Aug-06 16:47N 41°25' E 002°31'310.6
2018-Aug-06 16:31N 41°23' E 002°28'611.0
2018-Aug-06 16:00N 41°20' E 002°22'611.1
2018-Aug-06 15:30N 41°17' E 002°16'510.5
2018-Aug-06 15:00N 41°14' E 002°10'510.9
2018-Aug-06 14:30N 41°13' E 002°03'510.9
2018-Aug-06 14:00N 41°11' E 001°56'510.8
2018-Aug-06 13:30N 41°10' E 001°49'510.5
2018-Aug-06 13:00N 41°08' E 001°43'510.3
2018-Aug-06 12:29N 41°07' E 001°36'  
Track history (hours):
 
Tides and Currents Weather Stations Pressure Air Temp Water Temp Dewpoint Dewpoint Depression Visibility Wind Speed Wind Dir Waves Ship Positions

Bosporus

Last reported at 2018-Aug-16 08:27 UTC. Time now 2018-Aug-16 08:46 UTC.
Position N 43°25' E 004°56'.

Length 100 m; draft 4.1 m.

Type: Cargo ship. MMSI: 304010802.

Date/timePositionNaut miles runAvg speedWind from/ knotsBaromVisibWave heightAir tempDewpointWater temp
2018-Aug-16 08:27N 43°25' E 004°56'0 0.0
2018-Aug-16 08:00N 43°25' E 004°56'0 0.0
2018-Aug-16 07:27N 43°25' E 004°56'0 0.0
2018-Aug-16 07:00N 43°25' E 004°56'0 0.0
2018-Aug-16 06:30N 43°25' E 004°56'0 0.0
2018-Aug-16 06:00N 43°25' E 004°56'0 0.0
2018-Aug-16 05:30N 43°25' E 004°56'0 0.0
2018-Aug-16 05:00N 43°25' E 004°56'0 0.0
2018-Aug-16 04:30N 43°25' E 004°56'0 0.0
2018-Aug-16 04:00N 43°25' E 004°56'0 0.0
2018-Aug-16 03:30N 43°25' E 004°56'0 0.0
2018-Aug-16 03:00N 43°25' E 004°56'0 0.0
2018-Aug-16 02:30N 43°25' E 004°56'0 0.0
2018-Aug-16 02:00N 43°25' E 004°56'0 0.0
2018-Aug-16 01:30N 43°25' E 004°56'0 0.0
2018-Aug-16 01:00N 43°25' E 004°56'0 0.0
2018-Aug-16 00:30N 43°25' E 004°56'0 0.0
2018-Aug-15 23:57N 43°25' E 004°56'0 0.0
2018-Aug-15 23:30N 43°25' E 004°56'0 0.0
2018-Aug-15 23:00N 43°25' E 004°56'0 0.1
2018-Aug-15 22:30N 43°25' E 004°56'0 0.0
2018-Aug-15 22:00N 43°25' E 004°56'0 0.0
2018-Aug-15 21:27N 43°25' E 004°56'0 0.0
2018-Aug-15 21:00N 43°25' E 004°56'0 0.1
2018-Aug-15 20:27N 43°25' E 004°56'0 0.0
2018-Aug-15 20:00N 43°25' E 004°56'0 0.0
2018-Aug-15 19:30N 43°25' E 004°56'0 0.0
2018-Aug-15 18:57N 43°25' E 004°56'0 0.0
2018-Aug-15 18:30N 43°25' E 004°56'0 0.0
2018-Aug-15 18:00N 43°25' E 004°56'0 0.0
2018-Aug-15 17:30N 43°25' E 004°56'0 0.0
2018-Aug-15 17:00N 43°25' E 004°56'0 0.0
2018-Aug-15 16:27N 43°25' E 004°56'0 0.0
2018-Aug-15 16:00N 43°25' E 004°56'0 0.0
2018-Aug-15 15:30N 43°25' E 004°56'0 0.0
2018-Aug-15 15:00N 43°25' E 004°56'0 0.0
2018-Aug-15 14:30N 43°25' E 004°56'0 0.0
2018-Aug-15 14:00N 43°25' E 004°56'0 0.0
2018-Aug-15 13:30N 43°25' E 004°56'0 0.0
2018-Aug-15 13:00N 43°25' E 004°56'0 0.0
2018-Aug-15 12:30N 43°25' E 004°56'0 0.0
2018-Aug-15 12:00N 43°25' E 004°56'0 0.0
2018-Aug-15 11:30N 43°25' E 004°56'0 0.0
2018-Aug-15 11:00N 43°25' E 004°56'0 0.0
2018-Aug-15 10:30N 43°25' E 004°56'0 0.0
2018-Aug-15 10:00N 43°25' E 004°56'0 0.0
2018-Aug-15 09:30N 43°25' E 004°56'0 0.0
2018-Aug-15 09:00N 43°25' E 004°56'0 0.0
2018-Aug-15 08:24N 43°25' E 004°56'0 0.1
2018-Aug-15 08:00N 43°25' E 004°56'0 0.0
2018-Aug-15 07:30N 43°25' E 004°56'0 0.0
2018-Aug-15 07:00N 43°25' E 004°56'0 0.0
2018-Aug-15 06:30N 43°25' E 004°56'0 0.0
2018-Aug-15 06:00N 43°25' E 004°56'0 0.0
2018-Aug-15 05:30N 43°25' E 004°56'0 0.0
2018-Aug-15 05:00N 43°25' E 004°56'0 0.0
2018-Aug-15 04:30N 43°25' E 004°56'0 0.0
2018-Aug-15 04:00N 43°25' E 004°56'0 0.0
2018-Aug-15 03:30N 43°25' E 004°56'0 0.0
2018-Aug-15 03:00N 43°25' E 004°56'0 0.0
2018-Aug-15 02:27N 43°25' E 004°56'0 0.0
2018-Aug-15 01:57N 43°25' E 004°56'0 0.0
2018-Aug-15 01:30N 43°25' E 004°56'0 0.0
2018-Aug-15 01:00N 43°25' E 004°56'0 0.0
2018-Aug-15 00:30N 43°25' E 004°56'0 0.2
2018-Aug-15 00:00N 43°25' E 004°56'4 7.4
2018-Aug-14 23:30N 43°21' E 004°58'3 7.0
2018-Aug-14 23:00N 43°18' E 004°58'510.5
2018-Aug-14 22:30N 43°16' E 004°51'3310.5
2018-Aug-14 19:24N 43°14' E 004°07'40 8.3
2018-Aug-14 14:35N 42°56' E 003°18'1 8.1
2018-Aug-14 14:28N 42°55' E 003°18'4 8.1
2018-Aug-14 13:58N 42°51' E 003°18'7 8.5
2018-Aug-14 13:09N 42°44' E 003°17'86 8.6
2018-Aug-14 03:12N 41°24' E 002°35'210.4
2018-Aug-14 02:59N 41°23' E 002°33'510.3
2018-Aug-14 02:30N 41°19' E 002°28'510.0
2018-Aug-14 02:00N 41°16' E 002°23'5 9.8
2018-Aug-14 01:30N 41°13' E 002°18'5 9.7
2018-Aug-14 01:00N 41°10' E 002°13'1 0.0
2018-Aug-11 21:24N 41°10' E 002°14'510.0
2018-Aug-11 20:56N 41°13' E 002°18'27 9.3
2018-Aug-11 18:03N 41°30' E 002°45'0 9.0
2018-Aug-11 18:00N 41°31' E 002°46'4 9.0
2018-Aug-11 17:31N 41°33' E 002°50'13610.0
2018-Aug-11 03:53N 43°15' E 004°53'410.2
2018-Aug-11 03:30N 43°18' E 004°57'5 9.0
2018-Aug-11 03:00N 43°22' E 004°58'4 8.7
2018-Aug-11 02:30N 43°25' E 004°53'1 1.0
2018-Aug-11 01:56N 43°26' E 004°53'0 0.0
2018-Aug-11 01:23N 43°26' E 004°53'0 0.0
2018-Aug-11 00:59N 43°26' E 004°53'0 0.0
2018-Aug-11 00:29N 43°26' E 004°53'0 0.0
2018-Aug-10 23:59N 43°26' E 004°53'0 0.0
2018-Aug-10 23:29N 43°26' E 004°53'0 0.0
2018-Aug-10 22:59N 43°26' E 004°53'0 0.0
2018-Aug-10 22:23N 43°26' E 004°53'0 0.0
2018-Aug-10 21:59N 43°26' E 004°53'0 0.0
2018-Aug-10 21:23N 43°26' E 004°53'0 0.0
2018-Aug-10 20:59N 43°26' E 004°53'0 0.0
2018-Aug-10 20:26N 43°26' E 004°53'0 0.0
2018-Aug-10 19:59N 43°26' E 004°53'0 0.0
2018-Aug-10 19:29N 43°26' E 004°53'0 0.0
2018-Aug-10 18:59N 43°26' E 004°53'0 0.0
2018-Aug-10 18:29N 43°26' E 004°53'0 0.0
2018-Aug-10 17:53N 43°26' E 004°53'0 0.0
2018-Aug-10 17:29N 43°26' E 004°53'0 0.0
2018-Aug-10 16:59N 43°26' E 004°53'0 0.0
2018-Aug-10 16:29N 43°26' E 004°53'0 0.0
2018-Aug-10 15:59N 43°26' E 004°53'0 0.0
2018-Aug-10 15:29N 43°26' E 004°53'0 0.0
2018-Aug-10 14:59N 43°26' E 004°53'0 0.0
2018-Aug-10 14:29N 43°26' E 004°53'0 0.0
2018-Aug-10 13:59N 43°26' E 004°53'0 0.0
2018-Aug-10 13:29N 43°26' E 004°53'0 0.0
2018-Aug-10 12:59N 43°26' E 004°53'0 0.0
2018-Aug-10 12:29N 43°26' E 004°53'0 0.0
2018-Aug-10 11:56N 43°26' E 004°53'0 0.0
2018-Aug-10 11:29N 43°26' E 004°53'0 0.0
2018-Aug-10 10:59N 43°26' E 004°53'0 0.0
2018-Aug-10 10:29N 43°26' E 004°53'0 0.0
2018-Aug-10 09:56N 43°26' E 004°53'0 0.0
2018-Aug-10 09:26N 43°26' E 004°53'0 0.0
2018-Aug-10 08:59N 43°26' E 004°53'0 0.0
2018-Aug-10 08:29N 43°26' E 004°53'0 0.0
2018-Aug-10 07:50N 43°26' E 004°53'0 0.0
2018-Aug-10 07:20N 43°26' E 004°53'0 0.0
2018-Aug-10 06:56N 43°26' E 004°53'0 0.0
2018-Aug-10 06:29N 43°26' E 004°53'0 0.0
2018-Aug-10 05:59N 43°26' E 004°53'0 0.0
2018-Aug-10 05:29N 43°26' E 004°53'0 0.0
2018-Aug-10 04:56N 43°26' E 004°53'0 0.0
2018-Aug-10 04:29N 43°26' E 004°53'0 0.0
2018-Aug-10 03:59N 43°26' E 004°53'0 0.0
2018-Aug-10 03:29N 43°26' E 004°53'0 0.0
2018-Aug-10 02:59N 43°26' E 004°53'0 0.0
2018-Aug-10 02:29N 43°26' E 004°53'0 0.0
2018-Aug-10 01:59N 43°26' E 004°53'0 0.0
2018-Aug-10 01:29N 43°26' E 004°53'0 0.0
2018-Aug-10 00:59N 43°26' E 004°53'0 0.0
2018-Aug-10 00:29N 43°26' E 004°53'0 0.0
2018-Aug-09 23:59N 43°26' E 004°53'0 0.0
2018-Aug-09 23:30N 43°26' E 004°53'1 2.9
2018-Aug-09 22:59N 43°24' E 004°53'2 4.0
2018-Aug-09 22:30N 43°25' E 004°56'0 0.0
2018-Aug-09 22:00N 43°25' E 004°56'0 0.0
2018-Aug-09 21:27N 43°25' E 004°56'0 0.0
2018-Aug-09 21:00N 43°25' E 004°56'0 0.0
2018-Aug-09 20:24N 43°25' E 004°56'0 0.0
2018-Aug-09 20:00N 43°25' E 004°56'0 0.0
2018-Aug-09 19:30N 43°25' E 004°56'0 0.3
2018-Aug-09 19:00N 43°25' E 004°56'0 0.0
2018-Aug-09 18:30N 43°25' E 004°56'0 0.0
2018-Aug-09 18:00N 43°25' E 004°56'0 0.0
2018-Aug-09 17:30N 43°25' E 004°56'0 0.0
2018-Aug-09 17:00N 43°25' E 004°56'0 0.0
2018-Aug-09 16:27N 43°25' E 004°56'0 0.1
2018-Aug-09 16:00N 43°25' E 004°56'0 0.0
2018-Aug-09 15:30N 43°25' E 004°56'0 0.0
2018-Aug-09 15:00N 43°25' E 004°56'0 0.0
2018-Aug-09 14:30N 43°25' E 004°56'0 0.0
2018-Aug-09 14:00N 43°25' E 004°56'0 0.1
2018-Aug-09 13:30N 43°25' E 004°56'0 0.0
2018-Aug-09 13:00N 43°25' E 004°56'0 0.1
2018-Aug-09 12:30N 43°25' E 004°56'0 0.1
2018-Aug-09 12:00N 43°25' E 004°56'0 0.0
2018-Aug-09 11:30N 43°25' E 004°56'0 0.0
2018-Aug-09 11:00N 43°25' E 004°56'0 0.0
2018-Aug-09 10:30N 43°25' E 004°56'0 0.0
2018-Aug-09 10:00N 43°25' E 004°56'0 0.0
2018-Aug-09 09:30N 43°25' E 004°56'0 0.0
2018-Aug-09 09:00N 43°25' E 004°56'0 0.0
2018-Aug-09 08:30N 43°25' E 004°56'0 0.0
2018-Aug-09 08:00N 43°25' E 004°56'0 0.0
2018-Aug-09 07:30N 43°25' E 004°56'0 0.0
2018-Aug-09 07:00N 43°25' E 004°56'0 0.0
2018-Aug-09 06:30N 43°25' E 004°56'0 0.0
2018-Aug-09 06:00N 43°25' E 004°56'0 0.0
2018-Aug-09 05:30N 43°25' E 004°56'0 0.0
2018-Aug-09 05:00N 43°25' E 004°56'0 0.0
2018-Aug-09 04:30N 43°25' E 004°56'0 0.0
2018-Aug-09 04:00N 43°25' E 004°56'0 0.0
2018-Aug-09 03:30N 43°25' E 004°56'0 0.1
2018-Aug-09 03:00N 43°25' E 004°56'0 0.0
2018-Aug-09 02:30N 43°25' E 004°56'0 0.0
2018-Aug-09 02:00N 43°25' E 004°56'0 0.0
2018-Aug-09 01:24N 43°25' E 004°56'0 0.0
2018-Aug-09 01:00N 43°25' E 004°56'0 0.0
2018-Aug-09 00:30N 43°25' E 004°56'0 0.0
2018-Aug-08 23:57N 43°25' E 004°56'0 0.0
2018-Aug-08 23:30N 43°25' E 004°56'0 0.0
2018-Aug-08 23:00N 43°25' E 004°56'0 0.0
2018-Aug-08 22:30N 43°25' E 004°56'0 0.0
2018-Aug-08 22:00N 43°25' E 004°56'0 0.0
2018-Aug-08 21:30N 43°25' E 004°56'0 0.0
2018-Aug-08 20:57N 43°25' E 004°56'0 0.0
2018-Aug-08 20:30N 43°25' E 004°56'0 0.0
2018-Aug-08 20:00N 43°25' E 004°56'0 0.0
2018-Aug-08 19:30N 43°25' E 004°56'0 0.0
2018-Aug-08 19:00N 43°25' E 004°56'0 0.0
2018-Aug-08 18:30N 43°25' E 004°56'0 0.0
2018-Aug-08 18:00N 43°25' E 004°56'0 0.0
2018-Aug-08 17:30N 43°25' E 004°56'0 0.0
2018-Aug-08 17:00N 43°25' E 004°56'0 0.0
2018-Aug-08 16:30N 43°25' E 004°56'0 0.0
2018-Aug-08 16:00N 43°25' E 004°56'0 0.0
2018-Aug-08 15:27N 43°25' E 004°56'0 0.0
2018-Aug-08 15:00N 43°25' E 004°56'0 0.0
2018-Aug-08 14:30N 43°25' E 004°56'0 0.0
2018-Aug-08 14:00N 43°25' E 004°56'0 0.0
2018-Aug-08 13:30N 43°25' E 004°56'0 0.0
2018-Aug-08 12:57N 43°25' E 004°56'0 0.0
2018-Aug-08 12:27N 43°25' E 004°56'0 0.0
2018-Aug-08 12:00N 43°25' E 004°56'0 0.0
2018-Aug-08 11:30N 43°25' E 004°56'0 0.0
2018-Aug-08 11:00N 43°25' E 004°56'0 0.0
2018-Aug-08 10:30N 43°25' E 004°56'0 0.0
2018-Aug-08 10:00N 43°25' E 004°56'0 0.0
2018-Aug-08 09:30N 43°25' E 004°56'0 0.0
2018-Aug-08 09:00N 43°25' E 004°56'0 0.0
2018-Aug-08 08:30N 43°25' E 004°56'0 0.1
2018-Aug-08 08:00N 43°25' E 004°56'0 0.0
2018-Aug-08 07:30N 43°25' E 004°56'0 0.0
2018-Aug-08 07:00N 43°25' E 004°56'0 0.1
2018-Aug-08 06:30N 43°25' E 004°56'0 0.0
2018-Aug-08 06:00N 43°25' E 004°56'0 0.0
2018-Aug-08 05:30N 43°25' E 004°56'0 0.0
2018-Aug-08 05:00N 43°25' E 004°56'0 0.0
2018-Aug-08 04:30N 43°25' E 004°56'0 0.0
2018-Aug-08 03:57N 43°25' E 004°56'0 0.0
2018-Aug-08 03:30N 43°25' E 004°56'0 0.1
2018-Aug-08 03:00N 43°25' E 004°56'0 0.0
2018-Aug-08 02:30N 43°25' E 004°56'0 0.0
2018-Aug-08 02:00N 43°25' E 004°56'0 0.0
2018-Aug-08 01:27N 43°25' E 004°56'0 0.0
2018-Aug-08 01:00N 43°25' E 004°56'0 0.0
2018-Aug-08 00:30N 43°25' E 004°56'0 0.1
2018-Aug-08 00:00N 43°25' E 004°56'0 0.0
2018-Aug-07 23:30N 43°25' E 004°56'0 0.0
2018-Aug-07 23:00N 43°25' E 004°56'0 0.0
2018-Aug-07 22:30N 43°25' E 004°56'0 0.0
2018-Aug-07 22:00N 43°25' E 004°56'0 0.0
2018-Aug-07 21:30N 43°25' E 004°56'0 0.0
2018-Aug-07 20:57N 43°25' E 004°56'0 0.0
2018-Aug-07 20:30N 43°25' E 004°56'0 0.0
2018-Aug-07 20:00N 43°25' E 004°56'0 0.0
2018-Aug-07 19:30N 43°25' E 004°56'0 0.0
2018-Aug-07 19:00N 43°25' E 004°56'0 0.0
2018-Aug-07 18:30N 43°25' E 004°56'0 0.0
2018-Aug-07 18:00N 43°25' E 004°56'0 0.0
2018-Aug-07 17:27N 43°25' E 004°56'0 0.0
2018-Aug-07 17:00N 43°25' E 004°56'0 0.0
2018-Aug-07 16:30N 43°25' E 004°56'0 0.0
2018-Aug-07 16:00N 43°25' E 004°56'0 0.0
2018-Aug-07 15:30N 43°25' E 004°56'0 0.0
2018-Aug-07 15:00N 43°25' E 004°56'0 0.0
2018-Aug-07 14:30N 43°25' E 004°56'0 0.0
2018-Aug-07 14:00N 43°25' E 004°56'0 0.0
2018-Aug-07 13:30N 43°25' E 004°56'0 0.0
2018-Aug-07 13:00N 43°25' E 004°56'0 0.0
2018-Aug-07 12:30N 43°25' E 004°56'0 0.0
2018-Aug-07 12:00N 43°25' E 004°56'0 0.0
2018-Aug-07 11:30N 43°25' E 004°56'0 0.0
2018-Aug-07 11:00N 43°25' E 004°56'0 0.0
2018-Aug-07 10:30N 43°25' E 004°56'0 0.0
2018-Aug-07 10:00N 43°25' E 004°56'0 0.2
2018-Aug-07 09:30N 43°25' E 004°56'4 9.0
2018-Aug-07 09:00N 43°21' E 004°59'510.2
2018-Aug-07 08:30N 43°16' E 005°01'5 9.2
2018-Aug-07 07:58N 43°11' E 005°01'13210.1
2018-Aug-06 18:52N 41°38' E 002°54'1810.3
2018-Aug-06 17:05N 41°27' E 002°35'310.3
2018-Aug-06 16:47N 41°25' E 002°31'310.6
2018-Aug-06 16:31N 41°23' E 002°28'611.0
2018-Aug-06 16:00N 41°20' E 002°22'611.1
2018-Aug-06 15:30N 41°17' E 002°16'510.5
2018-Aug-06 15:00N 41°14' E 002°10'510.9
2018-Aug-06 14:30N 41°13' E 002°03'510.9
2018-Aug-06 14:00N 41°11' E 001°56'510.8
2018-Aug-06 13:30N 41°10' E 001°49'510.5
2018-Aug-06 13:00N 41°08' E 001°43'510.3
2018-Aug-06 12:29N 41°07' E 001°36'  

Dump ship's entire track history